METAR Data
IDs: Format: Raw Decoded Include TAF

Data at: 0031 UTC 26 Oct 2021

KJAS 260015Z AUTO 00000KT 10SM 23/23 A2994 RMK AO2
KJAS 252355Z AUTO 00000KT 10SM 24/23 A2993 RMK AO2
KJAS 252335Z AUTO 00000KT 10SM CLR 25/24 A2993 RMK AO2
KJAS 252315Z AUTO 00000KT 10SM CLR 27/24 A2992 RMK AO2
KJAS 252255Z AUTO 23004KT 10SM FEW034 28/23 A2992 RMK AO2
KJAS 252235Z AUTO 00000KT 10SM SCT033 28/23 A2991 RMK AO2
KJAS 252215Z AUTO 22004KT 10SM SCT033 28/23 A2992 RMK AO2
KJAS 252155Z AUTO VRB03KT 10SM CLR 29/23 A2992 RMK AO2
KJAS 252135Z AUTO 00000KT 10SM CLR 29/22 A2991 RMK AO2
KJAS 252115Z AUTO 27003KT 10SM CLR 29/23 A2992 RMK AO2
KJAS 252055Z AUTO 00000KT 10SM CLR 29/23 A2991 RMK AO2
KJAS 252035Z AUTO 24005KT 10SM FEW027 29/23 A2992 RMK AO2
KJAS 252015Z AUTO 00000KT 10SM FEW025 29/23 A2992 RMK AO2
KJAS 251955Z AUTO 00000KT 10SM SCT025 28/23 A2993 RMK AO2
KJAS 251935Z AUTO VRB03KT 10SM OVC024 27/23 A2994 RMK AO2
KJAS 251915Z AUTO VRB03KT 10SM BKN020 OVC025 28/23 A2994 RMK AO2
KJAS 251855Z AUTO 30004KT 10SM SCT018 OVC025 28/24 A2995 RMK AO2
KJAS 251835Z AUTO 00000KT 10SM BKN017 OVC024 27/23 A2995 RMK AO2
KJAS 251815Z AUTO 27004KT 10SM SCT018 OVC024 27/24 A2996 RMK AO2
KJAS 251755Z AUTO 30004KT 10SM OVC023 26/24 A2997 RMK AO2
KJAS 251735Z AUTO 29005KT 10SM OVC019 26/23 A2997 RMK AO2
KJAS 251715Z AUTO 31004KT 10SM SCT013 OVC021 25/23 A2998 RMK AO2
KJAS 251655Z AUTO 30006KT 10SM OVC014 25/23 A2998 RMK AO2
KJAS 251635Z AUTO 30005KT 10SM OVC013 25/23 A2998 RMK AO2
KJAS 251615Z AUTO 32003KT 9SM OVC012 24/23 A2999 RMK AO2
KJAS 251555Z AUTO VRB03KT 9SM OVC012 25/23 A2998 RMK AO2
KJAS 251535Z AUTO 31004KT 9SM SCT009 BKN013 25/23 A2998 RMK AO2
KJAS 251515Z AUTO 29004KT 8SM BKN011 24/23 A2998 RMK AO2
KJAS 251455Z AUTO 30005KT 6SM BR BKN009 BKN013 24/23 A2998 RMK AO2
KJAS 251435Z AUTO 00000KT 9SM BKN009 OVC013 24/23 A2998 RMK AO2
KJAS 251415Z AUTO 00000KT 9SM -RA OVC010 23/23 A2998 RMK AO2
KJAS 251355Z AUTO 00000KT 10SM OVC010 23/23 A2997 RMK AO2
KJAS 251335Z AUTO 20003KT 10SM OVC011 23/23 A2996 RMK AO2
KJAS 251315Z AUTO 00000KT 10SM OVC011 23/23 A2996 RMK AO2
KJAS 251255Z AUTO 00000KT 9SM OVC012 22/23 A2995 RMK AO2
KJAS 251235Z AUTO 00000KT 9SM OVC011 22/22 A2995 RMK AO2
KJAS 251215Z AUTO 00000KT 10SM 22/22 A2995 RMK AO2
KJAS 251155Z AUTO 00000KT 9SM 22/22 A2994 RMK AO2
KJAS 251135Z AUTO 00000KT 10SM 22/22 A2993 RMK AO2
KJAS 251115Z AUTO 00000KT 10SM 22/22 A2993 RMK AO2
KJAS 251055Z AUTO 00000KT 10SM 22/22 A2993 RMK AO2
KJAS 251035Z AUTO 00000KT 10SM 22/22 A2992 RMK AO2
KJAS 251015Z AUTO 00000KT 10SM OVC003 22/22 A2991 RMK AO2
KJAS 250955Z AUTO 22004KT 10SM OVC003 22/22 A2991 RMK AO2
KJAS 250935Z AUTO 20003KT 10SM OVC004 22/22 A2990 RMK AO2
KJAS 250915Z AUTO 22003KT 10SM OVC004 22/22 A2990 RMK AO2
KJAS 250855Z AUTO 22005KT 10SM 22/22 A2990 RMK AO2
KJAS 250835Z AUTO 20006KT 10SM 22/22 A2990 RMK AO2
KJAS 250815Z AUTO 22007KT 10SM 22/22 A2991 RMK AO2
KJAS 250755Z AUTO 20005G10KT 10SM 22/23 A2991 RMK AO2
KJAS 250735Z AUTO 22006KT 5SM BR 23/23 A2991 RMK AO2
KJAS 250715Z AUTO 20004KT 2 1/2SM BR 23/23 A2991 RMK AO2
KJAS 250655Z AUTO 21006KT 4SM BR 23/23 A2991 RMK AO2
KJAS 250635Z AUTO 21004KT 8SM 23/23 A2991 RMK AO2
KJAS 250615Z AUTO 00000KT 10SM 22/22 A2990 RMK AO2
KJAS 250555Z AUTO 21003KT 9SM BKN006 OVC009 22/22 A2990 RMK AO2
KJAS 250535Z AUTO 00000KT 10SM OVC008 22/22 A2990 RMK AO2
KJAS 250515Z AUTO 00000KT 10SM OVC009 21/21 A2990 RMK AO2
KJAS 250455Z AUTO 00000KT 7SM BKN008 21/21 A2990 RMK AO2
KJAS 250435Z AUTO 00000KT 7SM 21/21 A2991 RMK AO2
KJAS 250415Z AUTO 00000KT 4SM BR 21/21 A2990 RMK AO2
KJAS 250355Z AUTO 00000KT 10SM 22/22 A2990 RMK AO2
KJAS 250335Z AUTO 00000KT 10SM CLR 22/22 A2989 RMK AO2
KJAS 250315Z AUTO 00000KT 10SM CLR 23/22 A2989 RMK AO2
KJAS 250255Z AUTO 00000KT 10SM CLR 23/22 A2989 RMK AO2
KJAS 250235Z AUTO 18004KT 10SM 23/22 A2989 RMK AO2
KJAS 250215Z AUTO VRB03KT 10SM 23/22 A2988 RMK AO2
KJAS 250155Z AUTO VRB05KT 10SM 23/22 A2987 RMK AO2
KJAS 250135Z AUTO VRB04KT 10SM CLR 24/22 A2987 RMK AO2
KJAS 250115Z AUTO VRB04KT 10SM 24/23 A2987 RMK AO2
KJAS 250055Z AUTO 15004KT 10SM 24/22 A2986 RMK AO2
KJAS 250035Z AUTO VRB05KT 10SM 24/22 A2985 RMK AO2
KJAS 250015Z AUTO 00000KT 10SM 25/22 A2985 RMK AO2
KJAS 242355Z AUTO VRB04KT 10SM FEW037 25/22 A2985 RMK AO2
KJAS 242335Z AUTO 15005KT 10SM SCT035 SCT044 26/22 A2984 RMK AO2
KJAS 242315Z AUTO 16004KT 10SM SCT035 27/22 A2984 RMK AO2
KJAS 242255Z AUTO 00000KT 10SM CLR 27/22 A2983 RMK AO2
KJAS 242235Z AUTO 16004KT 10SM SCT036 SCT046 27/21 A2983 RMK AO2
KJAS 242215Z AUTO 13007G13KT 040V190 10SM BKN036 28/21 A2983 RMK AO2
KJAS 242155Z AUTO 20013KT 10SM SCT035 29/21 A2983 RMK AO2
KJAS 242135Z AUTO 18009KT 10SM CLR 29/21 A2982 RMK AO2
KJAS 242115Z AUTO VRB05KT 10SM SCT040 SCT050 29/21 A2983 RMK AO2
KJAS 242055Z AUTO 14007KT 10SM BKN040 29/20 A2983 RMK AO2
KJAS 242035Z AUTO 18007G15KT 150V210 10SM FEW042 FEW050 29/20 A2983 RMK AO2
KJAS 242015Z AUTO 20011KT 10SM FEW044 SCT055 30/20 A2983 RMK AO2
KJAS 241955Z AUTO 14006G11KT 10SM BKN050 28/20 A2985 RMK AO2
KJAS 241935Z AUTO VRB06G12KT 10SM FEW037 BKN049 BKN055 29/20 A2985 RMK AO2
KJAS 241915Z AUTO 15008KT 10SM SCT037 BKN046 BKN050 28/20 A2985 RMK AO2
KJAS 241855Z AUTO 15007G14KT 120V200 10SM FEW041 FEW047 SCT055 29/20 A2986 RMK AO2
KJAS 241835Z AUTO 18011KT 10SM FEW038 FEW049 FEW075 29/21 A2986 RMK AO2
KJAS 241815Z AUTO 16007G16KT 140V200 10SM FEW029 BKN075 28/22 A2988 RMK AO2
KJAS 241755Z AUTO 18010G19KT 150V210 10SM SCT029 BKN075 28/22 A2989 RMK AO2
KJAS 241735Z AUTO 17010G16KT 130V190 10SM SCT027 SCT036 28/22 A2990 RMK AO2
KJAS 241715Z AUTO 17010KT 120V190 10SM FEW027 BKN034 27/22 A2991 RMK AO2
KJAS 241655Z AUTO 16011G18KT 140V200 10SM SCT026 BKN033 BKN090 27/22 A2992 RMK AO2
KJAS 241635Z AUTO VRB06KT 10SM FEW025 SCT031 BKN085 26/22 A2993 RMK AO2
KJAS 241615Z AUTO VRB04G10KT 10SM FEW070 BKN085 26/22 A2993 RMK AO2
KJAS 241555Z AUTO 19011KT 140V200 10SM SCT070 BKN080 25/21 A2993 RMK AO2
KJAS 241535Z AUTO VRB03KT 10SM FEW070 BKN080 25/21 A2992 RMK AO2
KJAS 241515Z AUTO VRB06KT 10SM FEW070 SCT080 25/21 A2992 RMK AO2
KJAS 241455Z AUTO 18007KT 110V210 10SM SCT070 25/21 A2991 RMK AO2
KJAS 241435Z AUTO 00000KT 10SM CLR 24/21 A2991 RMK AO2
KJAS 241415Z AUTO VRB04KT 10SM FEW090 23/21 A2991 RMK AO2
KJAS 241355Z AUTO 00000KT 10SM SCT090 22/21 A2990 RMK AO2
KJAS 241335Z AUTO 00000KT 10SM SCT075 21/20 A2990 RMK AO2
KJAS 241315Z AUTO 00000KT 10SM BKN075 20/20 A2989 RMK AO2
KJAS 241255Z AUTO 00000KT 9SM FEW075 19/19 A2989 RMK AO2
KJAS 241235Z AUTO 00000KT 6SM BR CLR 19/19 A2989 RMK AO2